Hamilton, New Jersey
Current Conditions -  °F | °C
As of 12:53 PM on Saturday 20 Dec 2014 (Local Time) from KTTN Reporting Station
Overcast Overcast  
Wind Chill: 27°   Ceiling: 2600
Heat Index: 32°   Visibility: 10mi
Dew Point: 20°   Wind: 5mph
Humidity: 61%   Direction: 40°NE
Pressure: 30.26"   Gusts: NA
Location:  40.1953°N, 74.7126°W
Report Text: KTTN 201753Z 04004KT 10SM OVC026 00/M07 A3026 RMK AO2 SLP242 T00001067 10000 21011 58016
Loading
Personal Weather Stations






























Interactive Weather Map New forecast layout! Learn more

10-Day Weather Forecast

Advertisements
Track Severe Weather on mobile